B Gas Margrethe — 9HA4386 — position and weather

sailwx.info

Track history (hours):
 
Tides and Currents Weather Stations Pressure Air Temp Water Temp Dewpoint Dewpoint Depression Visibility Wind Speed Wind Dir Waves Ship Positions

B Gas Margrethe

Last reported at 2017-Oct-22 08:50 UTC. Time now 2017-Oct-23 08:23 UTC.
Position N 57°59' E 010°22'.

Length 100 m; draft 5.6 m.

Type: Ship (hazmat cat A). MMSI: 249810000.

Date/timePositionNaut miles runAvg speedWind from/ knotsBaromVisibWave heightAir tempDewpointWater temp
2017-Oct-22 08:50N 57°59' E 010°22'413.0
2017-Oct-22 08:30N 58°01' E 010°29'612.6
2017-Oct-22 08:00N 58°04' E 010°40'612.8
2017-Oct-22 07:30N 58°07' E 010°50'612.7
2017-Oct-22 07:00N 58°11' E 011°00'812.7
2017-Oct-22 06:23N 58°15' E 011°12'410.1
2017-Oct-22 06:00N 58°18' E 011°18'510.6
2017-Oct-22 05:30N 58°21' E 011°25'1 0.0
2017-Oct-20 19:48N 58°21' E 011°26'0 1.2
2017-Oct-20 19:24N 58°22' E 011°25'2 6.2
2017-Oct-20 19:00N 58°20' E 011°22'611.2
2017-Oct-20 18:30N 58°16' E 011°15'510.7
2017-Oct-20 18:00N 58°13' E 011°06'612.4
2017-Oct-20 17:30N 58°09' E 010°57'612.5
2017-Oct-20 17:00N 58°05' E 010°47'6812.5
2017-Oct-20 11:33N 57°25' E 009°05'12013.0
2017-Oct-20 02:23N 55°49' E 006°55'6014.2
2017-Oct-19 22:08N 54°58' E 006°00'214.4
2017-Oct-19 21:59N 54°56' E 005°58'714.3
2017-Oct-19 21:28N 54°49' E 005°52'714.4
2017-Oct-19 21:00N 54°43' E 005°46'714.5
2017-Oct-19 20:30N 54°37' E 005°40'814.7
2017-Oct-19 20:00N 54°31' E 005°33'6014.7
2017-Oct-19 15:53N 53°36' E 004°50'715.3
2017-Oct-19 15:26N 53°30' E 004°45'1815.3
2017-Oct-19 14:17N 53°13' E 004°33'514.8
2017-Oct-19 13:56N 53°09' E 004°28'714.7
2017-Oct-19 13:26N 53°03' E 004°22'914.4
2017-Oct-19 12:49N 52°55' E 004°16'414.1
2017-Oct-19 12:31N 52°51' E 004°12'713.7
2017-Oct-19 12:00N 52°46' E 004°05'713.4
2017-Oct-19 11:30N 52°42' E 003°56'713.6
2017-Oct-19 11:00N 52°38' E 003°47'713.1
2017-Oct-19 10:29N 52°32' E 003°41'613.2
2017-Oct-19 10:00N 52°27' E 003°36'713.2
2017-Oct-19 09:30N 52°22' E 003°28'713.0
2017-Oct-19 08:58N 52°16' E 003°21'612.8
2017-Oct-19 08:30N 52°12' E 003°14'612.7
2017-Oct-19 08:00N 52°07' E 003°07'712.7
2017-Oct-19 07:26N 52°02' E 002°60'512.9
2017-Oct-19 07:00N 51°58' E 002°54'713.1
2017-Oct-19 06:27N 51°52' E 002°46'613.4
2017-Oct-19 05:58N 51°48' E 002°39'613.6
2017-Oct-19 05:30N 51°43' E 002°32'713.9
2017-Oct-19 05:00N 51°38' E 002°25'714.4
2017-Oct-19 04:30N 51°32' E 002°18'714.6
2017-Oct-19 04:00N 51°26' E 002°12'714.3
2017-Oct-19 03:30N 51°19' E 002°07'714.9
2017-Oct-19 03:00N 51°13' E 002°01'815.2
2017-Oct-19 02:30N 51°09' E 001°51'815.4
2017-Oct-19 02:00N 51°03' E 001°42'815.6
2017-Oct-19 01:30N 50°58' E 001°34'816.4
2017-Oct-19 01:00N 50°51' E 001°26'816.2
2017-Oct-19 00:30N 50°44' E 001°20'1115.4
2017-Oct-18 23:48N 50°36' E 001°08'515.1
2017-Oct-18 23:28N 50°33' E 001°03'814.9
2017-Oct-18 22:57N 50°30' E 000°51'715.0
2017-Oct-18 22:29N 50°28' E 000°40'915.1
2017-Oct-18 21:53N 50°26' E 000°27'615.5
2017-Oct-18 21:30N 50°24' E 000°18'815.9
2017-Oct-18 20:58N 50°22' E 000°05'715.9
2017-Oct-18 20:30N 50°19' W 000°06'816.8
2017-Oct-18 20:00N 50°17' W 000°18'917.2
2017-Oct-18 19:30N 50°14' W 000°31'9015.2
2017-Oct-18 13:36N 49°51' W 002°46'112.6
2017-Oct-18 13:30N 49°50' W 002°48'712.4
2017-Oct-18 12:59N 49°48' W 002°57'712.5
2017-Oct-18 12:28N 49°45' W 003°06'612.6
2017-Oct-18 11:59N 49°42' W 003°14'612.8
2017-Oct-18 11:30N 49°39' W 003°22'713.0
2017-Oct-18 10:59N 49°36' W 003°32'712.9
2017-Oct-18 10:27N 49°32' W 003°41'613.0
2017-Oct-18 09:59N 49°29' W 003°49'2213.1
2017-Oct-18 08:18N 49°18' W 004°18'413.3
2017-Oct-18 08:00N 49°16' W 004°23'713.3
2017-Oct-18 07:30N 49°12' W 004°31'1113.5
2017-Oct-18 06:40N 49°06' W 004°46'1014.0
2017-Oct-18 05:57N 49°01' W 004°59'814.7
2017-Oct-18 05:25N 48°57' W 005°10'815.2
2017-Oct-18 04:54N 48°53' W 005°20'615.2
2017-Oct-18 04:30N 48°50' W 005°28'815.1
2017-Oct-18 04:00N 48°45' W 005°37'815.2
2017-Oct-18 03:28N 48°38' W 005°43'712.3
2017-Oct-18 02:55N 48°32' W 005°48'714.3
2017-Oct-18 02:24N 48°26' W 005°53'615.7
2017-Oct-18 02:00N 48°19' W 005°54'815.8
2017-Oct-18 01:29N 48°11' W 005°56'815.6
2017-Oct-18 00:59N 48°03' W 005°55'715.3
2017-Oct-18 00:31N 47°56' W 005°55'815.2
2017-Oct-17 23:58N 47°48' W 005°54'915.2
2017-Oct-17 23:21N 47°39' W 005°53'515.0
2017-Oct-17 23:00N 47°33' W 005°54'1415.0
2017-Oct-17 22:05N 47°20' W 005°53'20213.9
2017-Oct-17 07:32N 43°58' W 005°41'113.7
2017-Oct-17 07:25N 43°56' W 005°41'613.9
2017-Oct-17 07:00N 43°51' W 005°41'714.1
2017-Oct-17 06:30N 43°43' W 005°40'713.8
2017-Oct-17 06:01N 43°37' W 005°40'3 3.0
2017-Oct-17 05:06N 43°34' W 005°41'0 0.0
2017-Oct-17 05:00N 43°34' W 005°41'  
2017-Oct-14 02:49N 43°49' W 006°24'513.9
2017-Oct-14 02:29N 43°49' W 006°18'714.0
2017-Oct-14 01:59N 43°48' W 006°08'714.2
2017-Oct-14 01:30N 43°47' W 005°59'714.6
2017-Oct-14 01:00N 43°46' W 005°49'714.3
2017-Oct-14 00:30N 43°45' W 005°39'1014.0
2017-Oct-13 23:47N 43°46' W 005°25'1414.0
2017-Oct-13 22:45N 43°45' W 005°05'913.9
2017-Oct-13 22:08N 43°44' W 004°53'414.0
2017-Oct-13 21:52N 43°44' W 004°48'714.1
2017-Oct-13 21:23N 43°44' W 004°39'713.9
2017-Oct-13 20:54N 43°43' W 004°29'613.9
2017-Oct-13 20:27N 43°43' W 004°21'613.9
2017-Oct-13 20:00N 43°42' W 004°12'713.8
2017-Oct-13 19:30N 43°40' W 004°03'713.7
2017-Oct-13 19:00N 43°39' W 003°54'713.3
2017-Oct-13 18:31N 43°38' W 003°45'713.7
2017-Oct-13 18:00N 43°37' W 003°35'713.4
2017-Oct-13 17:30N 43°35' W 003°26'713.3
2017-Oct-13 17:00N 43°32' W 003°18'713.2
2017-Oct-13 16:30N 43°27' W 003°12'612.4
2017-Oct-13 16:00N 43°23' W 003°05'2 3.1
2017-Oct-13 15:29N 43°22' W 003°06'0 0.0
2017-Oct-13 14:59N 43°22' W 003°06'0 0.0
2017-Oct-13 14:29N 43°22' W 003°06'0 0.0
2017-Oct-13 13:59N 43°22' W 003°06'0 0.0
2017-Oct-13 13:29N 43°22' W 003°06'0 0.0
2017-Oct-13 12:59N 43°22' W 003°06'0 0.0
2017-Oct-13 12:29N 43°22' W 003°06'0 0.0
2017-Oct-13 11:59N 43°22' W 003°06'0 0.0
2017-Oct-13 11:29N 43°22' W 003°06'0 0.0
2017-Oct-13 10:59N 43°22' W 003°06'0 0.0
2017-Oct-13 10:29N 43°22' W 003°06'0 0.0
2017-Oct-13 09:59N 43°22' W 003°06'0 0.0
2017-Oct-13 09:29N 43°22' W 003°06'0 0.0
2017-Oct-13 08:59N 43°22' W 003°06'0 0.0
2017-Oct-13 08:29N 43°22' W 003°06'0 0.0
2017-Oct-13 07:59N 43°22' W 003°06'0 0.0
2017-Oct-13 07:29N 43°22' W 003°06'0 0.0
2017-Oct-13 06:59N 43°22' W 003°06'0 0.0
2017-Oct-13 06:29N 43°22' W 003°06'0 0.0
2017-Oct-13 05:59N 43°22' W 003°06'0 0.0
2017-Oct-13 05:29N 43°22' W 003°06'0 0.0
2017-Oct-13 04:59N 43°22' W 003°06'0 0.0
2017-Oct-13 04:29N 43°22' W 003°06'0 0.0
2017-Oct-13 03:59N 43°22' W 003°06'0 0.0
2017-Oct-13 03:29N 43°22' W 003°06'0 0.0
2017-Oct-13 02:59N 43°22' W 003°06'0 0.0
2017-Oct-13 02:29N 43°22' W 003°06'0 0.0
2017-Oct-13 01:59N 43°22' W 003°06'0 0.0
2017-Oct-13 01:29N 43°22' W 003°06'0 0.0
2017-Oct-13 00:59N 43°22' W 003°06'0 0.0
2017-Oct-13 00:29N 43°22' W 003°06'0 0.0
2017-Oct-12 23:59N 43°22' W 003°06'0 0.0
2017-Oct-12 23:29N 43°22' W 003°06'0 0.0
2017-Oct-12 22:59N 43°22' W 003°06'0 0.0
2017-Oct-12 22:29N 43°22' W 003°06'0 0.0
2017-Oct-12 21:59N 43°22' W 003°06'0 0.0
2017-Oct-12 21:29N 43°22' W 003°06'0 0.0
2017-Oct-12 20:59N 43°22' W 003°06'0 0.0
2017-Oct-12 20:29N 43°22' W 003°06'0 0.0
2017-Oct-12 19:59N 43°22' W 003°06'0 0.0
2017-Oct-12 19:29N 43°22' W 003°06'0 0.0
2017-Oct-12 18:56N 43°22' W 003°06'0 0.0
2017-Oct-12 18:29N 43°22' W 003°06'0 0.0
2017-Oct-12 17:59N 43°22' W 003°06'0 0.0
2017-Oct-12 17:29N 43°22' W 003°06'0 0.0
2017-Oct-12 16:59N 43°22' W 003°06'0 0.0
2017-Oct-12 16:29N 43°22' W 003°06'0 0.0
2017-Oct-12 15:59N 43°22' W 003°06'0 0.0
2017-Oct-12 15:29N 43°22' W 003°06'0 0.0
2017-Oct-12 14:59N 43°22' W 003°06'0 0.0
2017-Oct-12 14:29N 43°22' W 003°06'0 0.0
2017-Oct-12 13:59N 43°22' W 003°06'0 0.0
2017-Oct-12 13:29N 43°22' W 003°06'0 0.0
2017-Oct-12 12:59N 43°22' W 003°06'0 0.0
2017-Oct-12 12:29N 43°22' W 003°06'0 0.0
2017-Oct-12 11:59N 43°22' W 003°06'0 0.0
2017-Oct-12 11:29N 43°22' W 003°06'0 0.0
2017-Oct-12 10:59N 43°22' W 003°06'0 0.0
2017-Oct-12 10:29N 43°22' W 003°06'0 0.0
2017-Oct-12 09:59N 43°22' W 003°06'0 0.0
2017-Oct-12 09:29N 43°22' W 003°06'0 0.0
2017-Oct-12 08:59N 43°22' W 003°06'  
Track history (hours):
 
Tides and Currents Weather Stations Pressure Air Temp Water Temp Dewpoint Dewpoint Depression Visibility Wind Speed Wind Dir Waves Ship Positions

B Gas Margrethe

Last reported at 2017-Oct-22 08:50 UTC. Time now 2017-Oct-23 08:23 UTC.
Position N 57°59' E 010°22'.

Length 100 m; draft 5.6 m.

Type: Ship (hazmat cat A). MMSI: 249810000.

Date/timePositionNaut miles runAvg speedWind from/ knotsBaromVisibWave heightAir tempDewpointWater temp
2017-Oct-22 08:50N 57°59' E 010°22'413.0
2017-Oct-22 08:30N 58°01' E 010°29'612.6
2017-Oct-22 08:00N 58°04' E 010°40'612.8
2017-Oct-22 07:30N 58°07' E 010°50'612.7
2017-Oct-22 07:00N 58°11' E 011°00'812.7
2017-Oct-22 06:23N 58°15' E 011°12'410.1
2017-Oct-22 06:00N 58°18' E 011°18'510.6
2017-Oct-22 05:30N 58°21' E 011°25'1 0.0
2017-Oct-20 19:48N 58°21' E 011°26'0 1.2
2017-Oct-20 19:24N 58°22' E 011°25'2 6.2
2017-Oct-20 19:00N 58°20' E 011°22'611.2
2017-Oct-20 18:30N 58°16' E 011°15'510.7
2017-Oct-20 18:00N 58°13' E 011°06'612.4
2017-Oct-20 17:30N 58°09' E 010°57'612.5
2017-Oct-20 17:00N 58°05' E 010°47'6812.5
2017-Oct-20 11:33N 57°25' E 009°05'12013.0
2017-Oct-20 02:23N 55°49' E 006°55'6014.2
2017-Oct-19 22:08N 54°58' E 006°00'214.4
2017-Oct-19 21:59N 54°56' E 005°58'714.3
2017-Oct-19 21:28N 54°49' E 005°52'714.4
2017-Oct-19 21:00N 54°43' E 005°46'714.5
2017-Oct-19 20:30N 54°37' E 005°40'814.7
2017-Oct-19 20:00N 54°31' E 005°33'6014.7
2017-Oct-19 15:53N 53°36' E 004°50'715.3
2017-Oct-19 15:26N 53°30' E 004°45'1815.3
2017-Oct-19 14:17N 53°13' E 004°33'514.8
2017-Oct-19 13:56N 53°09' E 004°28'714.7
2017-Oct-19 13:26N 53°03' E 004°22'914.4
2017-Oct-19 12:49N 52°55' E 004°16'414.1
2017-Oct-19 12:31N 52°51' E 004°12'713.7
2017-Oct-19 12:00N 52°46' E 004°05'713.4
2017-Oct-19 11:30N 52°42' E 003°56'713.6
2017-Oct-19 11:00N 52°38' E 003°47'713.1
2017-Oct-19 10:29N 52°32' E 003°41'613.2
2017-Oct-19 10:00N 52°27' E 003°36'713.2
2017-Oct-19 09:30N 52°22' E 003°28'713.0
2017-Oct-19 08:58N 52°16' E 003°21'612.8
2017-Oct-19 08:30N 52°12' E 003°14'612.7
2017-Oct-19 08:00N 52°07' E 003°07'712.7
2017-Oct-19 07:26N 52°02' E 002°60'512.9
2017-Oct-19 07:00N 51°58' E 002°54'713.1
2017-Oct-19 06:27N 51°52' E 002°46'613.4
2017-Oct-19 05:58N 51°48' E 002°39'613.6
2017-Oct-19 05:30N 51°43' E 002°32'713.9
2017-Oct-19 05:00N 51°38' E 002°25'714.4
2017-Oct-19 04:30N 51°32' E 002°18'714.6
2017-Oct-19 04:00N 51°26' E 002°12'714.3
2017-Oct-19 03:30N 51°19' E 002°07'714.9
2017-Oct-19 03:00N 51°13' E 002°01'815.2
2017-Oct-19 02:30N 51°09' E 001°51'815.4
2017-Oct-19 02:00N 51°03' E 001°42'815.6
2017-Oct-19 01:30N 50°58' E 001°34'816.4
2017-Oct-19 01:00N 50°51' E 001°26'816.2
2017-Oct-19 00:30N 50°44' E 001°20'1115.4
2017-Oct-18 23:48N 50°36' E 001°08'515.1
2017-Oct-18 23:28N 50°33' E 001°03'814.9
2017-Oct-18 22:57N 50°30' E 000°51'715.0
2017-Oct-18 22:29N 50°28' E 000°40'915.1
2017-Oct-18 21:53N 50°26' E 000°27'615.5
2017-Oct-18 21:30N 50°24' E 000°18'815.9
2017-Oct-18 20:58N 50°22' E 000°05'715.9
2017-Oct-18 20:30N 50°19' W 000°06'816.8
2017-Oct-18 20:00N 50°17' W 000°18'917.2
2017-Oct-18 19:30N 50°14' W 000°31'9015.2
2017-Oct-18 13:36N 49°51' W 002°46'112.6
2017-Oct-18 13:30N 49°50' W 002°48'712.4
2017-Oct-18 12:59N 49°48' W 002°57'712.5
2017-Oct-18 12:28N 49°45' W 003°06'612.6
2017-Oct-18 11:59N 49°42' W 003°14'612.8
2017-Oct-18 11:30N 49°39' W 003°22'713.0
2017-Oct-18 10:59N 49°36' W 003°32'712.9
2017-Oct-18 10:27N 49°32' W 003°41'613.0
2017-Oct-18 09:59N 49°29' W 003°49'2213.1
2017-Oct-18 08:18N 49°18' W 004°18'413.3
2017-Oct-18 08:00N 49°16' W 004°23'713.3
2017-Oct-18 07:30N 49°12' W 004°31'1113.5
2017-Oct-18 06:40N 49°06' W 004°46'1014.0
2017-Oct-18 05:57N 49°01' W 004°59'814.7
2017-Oct-18 05:25N 48°57' W 005°10'815.2
2017-Oct-18 04:54N 48°53' W 005°20'615.2
2017-Oct-18 04:30N 48°50' W 005°28'815.1
2017-Oct-18 04:00N 48°45' W 005°37'815.2
2017-Oct-18 03:28N 48°38' W 005°43'712.3
2017-Oct-18 02:55N 48°32' W 005°48'714.3
2017-Oct-18 02:24N 48°26' W 005°53'615.7
2017-Oct-18 02:00N 48°19' W 005°54'815.8
2017-Oct-18 01:29N 48°11' W 005°56'815.6
2017-Oct-18 00:59N 48°03' W 005°55'715.3
2017-Oct-18 00:31N 47°56' W 005°55'815.2
2017-Oct-17 23:58N 47°48' W 005°54'915.2
2017-Oct-17 23:21N 47°39' W 005°53'515.0
2017-Oct-17 23:00N 47°33' W 005°54'1415.0
2017-Oct-17 22:05N 47°20' W 005°53'20213.9
2017-Oct-17 07:32N 43°58' W 005°41'113.7
2017-Oct-17 07:25N 43°56' W 005°41'613.9
2017-Oct-17 07:00N 43°51' W 005°41'714.1
2017-Oct-17 06:30N 43°43' W 005°40'713.8
2017-Oct-17 06:01N 43°37' W 005°40'3 3.0
2017-Oct-17 05:06N 43°34' W 005°41'0 0.0
2017-Oct-17 05:00N 43°34' W 005°41'  
2017-Oct-14 02:49N 43°49' W 006°24'513.9
2017-Oct-14 02:29N 43°49' W 006°18'714.0
2017-Oct-14 01:59N 43°48' W 006°08'714.2
2017-Oct-14 01:30N 43°47' W 005°59'714.6
2017-Oct-14 01:00N 43°46' W 005°49'714.3
2017-Oct-14 00:30N 43°45' W 005°39'1014.0
2017-Oct-13 23:47N 43°46' W 005°25'1414.0
2017-Oct-13 22:45N 43°45' W 005°05'913.9
2017-Oct-13 22:08N 43°44' W 004°53'414.0
2017-Oct-13 21:52N 43°44' W 004°48'714.1
2017-Oct-13 21:23N 43°44' W 004°39'713.9
2017-Oct-13 20:54N 43°43' W 004°29'613.9
2017-Oct-13 20:27N 43°43' W 004°21'613.9
2017-Oct-13 20:00N 43°42' W 004°12'713.8
2017-Oct-13 19:30N 43°40' W 004°03'713.7
2017-Oct-13 19:00N 43°39' W 003°54'713.3
2017-Oct-13 18:31N 43°38' W 003°45'713.7
2017-Oct-13 18:00N 43°37' W 003°35'713.4
2017-Oct-13 17:30N 43°35' W 003°26'713.3
2017-Oct-13 17:00N 43°32' W 003°18'713.2
2017-Oct-13 16:30N 43°27' W 003°12'612.4
2017-Oct-13 16:00N 43°23' W 003°05'2 3.1
2017-Oct-13 15:29N 43°22' W 003°06'0 0.0
2017-Oct-13 14:59N 43°22' W 003°06'0 0.0
2017-Oct-13 14:29N 43°22' W 003°06'0 0.0
2017-Oct-13 13:59N 43°22' W 003°06'0 0.0
2017-Oct-13 13:29N 43°22' W 003°06'0 0.0
2017-Oct-13 12:59N 43°22' W 003°06'0 0.0
2017-Oct-13 12:29N 43°22' W 003°06'0 0.0
2017-Oct-13 11:59N 43°22' W 003°06'0 0.0
2017-Oct-13 11:29N 43°22' W 003°06'0 0.0
2017-Oct-13 10:59N 43°22' W 003°06'0 0.0
2017-Oct-13 10:29N 43°22' W 003°06'0 0.0
2017-Oct-13 09:59N 43°22' W 003°06'0 0.0
2017-Oct-13 09:29N 43°22' W 003°06'0 0.0
2017-Oct-13 08:59N 43°22' W 003°06'0 0.0
2017-Oct-13 08:29N 43°22' W 003°06'0 0.0
2017-Oct-13 07:59N 43°22' W 003°06'0 0.0
2017-Oct-13 07:29N 43°22' W 003°06'0 0.0
2017-Oct-13 06:59N 43°22' W 003°06'0 0.0
2017-Oct-13 06:29N 43°22' W 003°06'0 0.0
2017-Oct-13 05:59N 43°22' W 003°06'0 0.0
2017-Oct-13 05:29N 43°22' W 003°06'0 0.0
2017-Oct-13 04:59N 43°22' W 003°06'0 0.0
2017-Oct-13 04:29N 43°22' W 003°06'0 0.0
2017-Oct-13 03:59N 43°22' W 003°06'0 0.0
2017-Oct-13 03:29N 43°22' W 003°06'0 0.0
2017-Oct-13 02:59N 43°22' W 003°06'0 0.0
2017-Oct-13 02:29N 43°22' W 003°06'0 0.0
2017-Oct-13 01:59N 43°22' W 003°06'0 0.0
2017-Oct-13 01:29N 43°22' W 003°06'0 0.0
2017-Oct-13 00:59N 43°22' W 003°06'0 0.0
2017-Oct-13 00:29N 43°22' W 003°06'0 0.0
2017-Oct-12 23:59N 43°22' W 003°06'0 0.0
2017-Oct-12 23:29N 43°22' W 003°06'0 0.0
2017-Oct-12 22:59N 43°22' W 003°06'0 0.0
2017-Oct-12 22:29N 43°22' W 003°06'0 0.0
2017-Oct-12 21:59N 43°22' W 003°06'0 0.0
2017-Oct-12 21:29N 43°22' W 003°06'0 0.0
2017-Oct-12 20:59N 43°22' W 003°06'0 0.0
2017-Oct-12 20:29N 43°22' W 003°06'0 0.0
2017-Oct-12 19:59N 43°22' W 003°06'0 0.0
2017-Oct-12 19:29N 43°22' W 003°06'0 0.0
2017-Oct-12 18:56N 43°22' W 003°06'0 0.0
2017-Oct-12 18:29N 43°22' W 003°06'0 0.0
2017-Oct-12 17:59N 43°22' W 003°06'0 0.0
2017-Oct-12 17:29N 43°22' W 003°06'0 0.0
2017-Oct-12 16:59N 43°22' W 003°06'0 0.0
2017-Oct-12 16:29N 43°22' W 003°06'0 0.0
2017-Oct-12 15:59N 43°22' W 003°06'0 0.0
2017-Oct-12 15:29N 43°22' W 003°06'0 0.0
2017-Oct-12 14:59N 43°22' W 003°06'0 0.0
2017-Oct-12 14:29N 43°22' W 003°06'0 0.0
2017-Oct-12 13:59N 43°22' W 003°06'0 0.0
2017-Oct-12 13:29N 43°22' W 003°06'0 0.0
2017-Oct-12 12:59N 43°22' W 003°06'0 0.0
2017-Oct-12 12:29N 43°22' W 003°06'0 0.0
2017-Oct-12 11:59N 43°22' W 003°06'0 0.0
2017-Oct-12 11:29N 43°22' W 003°06'0 0.0
2017-Oct-12 10:59N 43°22' W 003°06'0 0.0
2017-Oct-12 10:29N 43°22' W 003°06'0 0.0
2017-Oct-12 09:59N 43°22' W 003°06'0 0.0
2017-Oct-12 09:29N 43°22' W 003°06'0 0.0
2017-Oct-12 08:59N 43°22' W 003°06'  

Dump ship's entire track history